Time;durP1;ratioP1;P1;durP2;ratioP2;P2;SDS_P1;SDS_P2;PMS_P1;PMS_P2;Temp;Humidity;BMP_temperature;BMP_pressure;BME280_temperature;BME280_humidity;BME280_pressure;Samples;Min_cycle;Max_cycle;Signal;HPM_P1;HPM_P2
2023/07/18 00:02:10;;;;;;;1.80;1.33;;;18.30;99.90;;;;;;5075548;28;20553;-60
2023/07/18 00:04:37;;;;;;;2.70;1.60;;;18.00;99.90;;;;;;5076326;28;20519;-61
2023/07/18 00:07:05;;;;;;;8.30;1.63;;;;;;;;;;5077334;28;20477;-61
2023/07/18 00:09:32;;;;;;;3.20;1.60;;;18.00;99.90;;;;;;5074991;28;20742;-61
2023/07/18 00:12:00;;;;;;;1.90;1.67;;;18.20;99.90;;;;;;5076500;28;20929;-62
2023/07/18 00:14:29;;;;;;;4.13;1.70;;;18.00;99.90;;;;;;5077043;28;20438;-57
2023/07/18 00:16:57;;;;;;;2.27;1.60;;;17.60;99.90;;;;;;5087169;28;20431;-57
2023/07/18 00:19:24;;;;;;;3.07;2.03;;;;;;;;;;5094362;28;20430;-60
2023/07/18 00:21:51;;;;;;;3.27;1.57;;;17.90;99.90;;;;;;5075447;28;20463;-64
2023/07/18 00:24:18;;;;;;;2.73;1.60;;;18.00;99.90;;;;;;5075119;28;20517;-62
2023/07/18 00:26:45;;;;;;;4.70;2.87;;;;;;;;;;5079771;28;20513;-60
2023/07/18 00:29:13;;;;;;;4.63;1.80;;;18.20;99.90;;;;;;5081107;28;20526;-60
2023/07/18 00:31:41;;;;;;;3.03;1.77;;;;;;;;;;5088098;28;20446;-63
2023/07/18 00:34:08;;;;;;;3.33;2.03;;;17.60;99.90;;;;;;5075760;28;20463;-60
2023/07/18 00:36:34;;;;;;;2.43;1.70;;;18.00;99.90;;;;;;5082052;28;20482;-60
2023/07/18 00:39:03;;;;;;;2.57;1.70;;;18.40;99.90;;;;;;5088944;28;20503;-61
2023/07/18 00:41:30;;;;;;;3.70;2.10;;;17.70;99.90;;;;;;5079947;28;20442;-63
2023/07/18 00:43:57;;;;;;;2.83;1.80;;;17.50;99.90;;;;;;5075052;28;20466;-61
2023/07/18 00:46:26;;;;;;;3.00;1.93;;;17.40;99.90;;;;;;5076834;28;20514;-60
2023/07/18 00:48:54;;;;;;;2.83;1.57;;;;;;;;;;5076025;28;20470;-66
2023/07/18 00:51:21;;;;;;;5.00;1.83;;;17.40;99.90;;;;;;5076918;28;20482;-63
2023/07/18 00:53:48;;;;;;;4.07;1.80;;;17.50;99.90;;;;;;5080411;28;20551;-62
2023/07/18 00:56:16;;;;;;;3.43;2.00;;;;;;;;;;5085626;28;20522;-65
2023/07/18 00:58:44;;;;;;;2.57;2.20;;;;;;;;;;5075108;28;20450;-62
2023/07/18 01:01:11;;;;;;;5.60;2.30;;;17.20;99.90;;;;;;5076018;28;20517;-63
2023/07/18 01:03:39;;;;;;;4.37;2.00;;;17.50;99.90;;;;;;5075394;28;20489;-63
2023/07/18 01:06:06;;;;;;;2.23;1.60;;;17.30;99.90;;;;;;5075921;28;20839;-59
2023/07/18 01:08:34;;;;;;;3.87;2.20;;;;;;;;;;5078973;28;20458;-60
2023/07/18 01:11:01;;;;;;;2.70;2.00;;;17.30;99.90;;;;;;5090076;28;20525;-59
2023/07/18 01:13:28;;;;;;;2.60;1.53;;;17.50;99.90;;;;;;5078220;28;20959;-62
2023/07/18 01:15:55;;;;;;;4.80;2.20;;;17.20;99.90;;;;;;5075941;28;20470;-59
2023/07/18 01:18:22;;;;;;;2.63;2.10;;;17.10;99.90;;;;;;5078632;28;20438;-60
2023/07/18 01:20:50;;;;;;;2.00;1.60;;;17.10;99.90;;;;;;5076640;28;20520;-60
2023/07/18 01:23:20;;;;;;;6.83;2.30;;;16.90;99.90;;;;;;5080305;28;20442;-60
2023/07/18 01:25:47;;;;;;;4.43;1.60;;;17.20;99.90;;;;;;5087516;28;20786;-60
2023/07/18 01:28:13;;;;;;;1.77;1.53;;;17.00;99.90;;;;;;5080982;28;20446;-61
2023/07/18 01:30:40;;;;;;;2.60;1.93;;;16.70;99.90;;;;;;5080758;28;20558;-63
2023/07/18 01:33:07;;;;;;;3.63;2.10;;;;;;;;;;5081399;28;20548;-62
2023/07/18 01:35:35;;;;;;;5.23;1.80;;;;;;;;;;5085472;28;20937;-60
2023/07/18 01:38:02;;;;;;;4.17;2.40;;;;;;;;;;5087371;28;20525;-60
2023/07/18 01:40:30;;;;;;;2.43;1.60;;;16.90;99.90;;;;;;5088204;28;20462;-60
2023/07/18 01:42:59;;;;;;;3.30;1.93;;;16.60;99.90;;;;;;5086482;28;20454;-60
2023/07/18 01:45:28;;;;;;;2.50;1.90;;;16.70;99.90;;;;;;5091655;28;20446;-60
2023/07/18 01:47:56;;;;;;;4.23;2.73;;;16.40;99.90;;;;;;5095555;28;20482;-60
2023/07/18 01:50:23;;;;;;;5.00;2.83;;;16.80;99.90;;;;;;5096890;28;20460;-60
2023/07/18 01:52:50;;;;;;;2.77;1.90;;;;;;;;;;5080094;28;20446;-63
2023/07/18 01:55:17;;;;;;;3.97;2.07;;;17.20;99.90;;;;;;5086250;28;20446;-59
2023/07/18 01:57:47;;;;;;;4.50;2.33;;;16.70;99.90;;;;;;5079036;28;20434;-60
2023/07/18 02:00:20;;;;;;;6.63;3.10;;;16.60;99.90;;;;;;5088629;28;20499;-60
2023/07/18 02:02:48;;;;;;;2.50;1.47;;;16.60;99.90;;;;;;5086741;28;20465;-60
2023/07/18 02:05:16;;;;;;;2.27;1.27;;;16.50;99.90;;;;;;5088122;28;20993;-60
2023/07/18 02:07:43;;;;;;;2.40;1.80;;;;;;;;;;5078773;28;20467;-66
2023/07/18 02:10:10;;;;;;;2.50;1.80;;;16.40;99.90;;;;;;5082369;28;20561;-61
2023/07/18 02:12:37;;;;;;;4.60;2.00;;;;;;;;;;5081984;28;20478;-63
2023/07/18 02:15:07;;;;;;;2.47;1.73;;;16.50;99.90;;;;;;5078729;28;20433;-60
2023/07/18 02:17:34;;;;;;;4.50;2.10;;;;;;;;;;5081933;28;20501;-63
2023/07/18 02:20:06;;;;;;;3.10;2.40;;;16.50;99.90;;;;;;5086883;28;20441;-63
2023/07/18 02:22:35;;;;;;;2.53;2.10;;;16.60;99.90;;;;;;5090383;28;20486;-63
2023/07/18 02:25:03;;;;;;;3.20;2.10;;;16.40;99.90;;;;;;5083527;28;20512;-64
2023/07/18 02:27:32;;;;;;;2.43;1.87;;;16.40;99.90;;;;;;5083301;28;20551;-61
2023/07/18 02:30:00;;;;;;;4.47;2.10;;;;;;;;;;5087183;28;20485;-62
2023/07/18 02:32:29;;;;;;;4.10;2.67;;;16.70;99.90;;;;;;5092981;28;20480;-65
2023/07/18 02:34:56;;;;;;;2.40;2.20;;;16.70;99.90;;;;;;5079907;28;20438;-62
2023/07/18 02:37:23;;;;;;;4.17;2.33;;;16.40;99.90;;;;;;5077933;28;21652;-60
2023/07/18 02:39:50;;;;;;;2.47;2.03;;;16.30;99.90;;;;;;5090657;28;20442;-61
2023/07/18 02:42:18;;;;;;;2.67;1.80;;;16.10;99.90;;;;;;5093302;28;20642;-59
2023/07/18 02:44:45;;;;;;;2.17;1.90;;;;;;;;;;5079653;28;20446;-62
2023/07/18 02:47:12;;;;;;;5.70;1.93;;;;;;;;;;5077087;28;20525;-60
2023/07/18 02:49:40;;;;;;;4.33;2.30;;;16.00;99.90;;;;;;5079207;28;20537;-60
2023/07/18 02:52:08;;;;;;;7.00;2.00;;;16.20;99.90;;;;;;5085897;28;20482;-61
2023/07/18 02:54:35;;;;;;;6.43;2.40;;;16.40;99.90;;;;;;5091374;28;20453;-60
2023/07/18 02:57:02;;;;;;;5.37;1.87;;;16.30;99.90;;;;;;5087734;28;20902;-60
2023/07/18 02:59:29;;;;;;;5.43;2.47;;;16.00;99.90;;;;;;5089370;28;20462;-61
2023/07/18 03:01:57;;;;;;;4.03;2.00;;;;;;;;;;5093105;28;20434;-59
2023/07/18 03:04:24;;;;;;;2.53;2.13;;;16.20;99.90;;;;;;5087203;28;20481;-61
2023/07/18 03:06:52;;;;;;;26.83;2.03;;;16.20;99.90;;;;;;5086594;28;20574;-61
2023/07/18 03:09:21;;;;;;;4.23;2.17;;;;;;;;;;5090714;28;20462;-62
2023/07/18 03:11:49;;;;;;;5.57;2.87;;;16.50;99.90;;;;;;5094422;28;20482;-61
2023/07/18 03:14:17;;;;;;;2.27;1.93;;;15.90;99.90;;;;;;5087010;28;20463;-61
2023/07/18 03:16:45;;;;;;;4.10;1.97;;;;;;;;;;5079340;28;20453;-61
2023/07/18 03:19:12;;;;;;;2.30;2.00;;;16.30;99.90;;;;;;5086167;28;20498;-61
2023/07/18 03:21:39;;;;;;;4.27;2.47;;;;;;;;;;5076569;28;20521;-60
2023/07/18 03:24:10;;;;;;;4.10;1.90;;;16.40;99.90;;;;;;5079585;28;20962;-57
2023/07/18 03:26:37;;;;;;;4.30;2.90;;;16.20;99.90;;;;;;5100508;28;20402;-55
2023/07/18 03:29:05;;;;;;;3.53;2.40;;;16.00;99.90;;;;;;5099212;28;20442;-61
2023/07/18 03:31:32;;;;;;;2.60;2.10;;;;;;;;;;5091170;28;20470;-61
2023/07/18 03:34:00;;;;;;;5.13;2.33;;;15.90;99.90;;;;;;5088542;28;20516;-58
2023/07/18 03:36:27;;;;;;;3.00;1.93;;;15.90;99.90;;;;;;5095906;28;20461;-58
2023/07/18 03:38:54;;;;;;;5.13;2.87;;;16.30;99.90;;;;;;5078284;28;20833;-63
2023/07/18 03:41:23;;;;;;;3.90;2.30;;;16.10;99.90;;;;;;5077256;28;20469;-61
2023/07/18 03:43:50;;;;;;;3.23;2.00;;;;;;;;;;5076217;28;20470;-61
2023/07/18 03:46:17;;;;;;;3.77;2.30;;;16.20;99.90;;;;;;5075895;28;20518;-60
2023/07/18 03:48:44;;;;;;;5.80;2.40;;;;;;;;;;5076143;28;20556;-61
2023/07/18 03:51:11;;;;;;;7.40;2.50;;;16.10;99.90;;;;;;5079064;28;20569;-62
2023/07/18 03:53:39;;;;;;;2.80;2.20;;;;;;;;;;5077201;28;20464;-60
2023/07/18 03:56:07;;;;;;;4.47;2.47;;;16.00;99.90;;;;;;5085620;28;20486;-60
2023/07/18 03:58:35;;;;;;;13.50;2.70;;;15.70;99.90;;;;;;5084837;28;20533;-63
2023/07/18 04:01:08;;;;;;;3.30;2.47;;;15.80;99.90;;;;;;5078047;28;20493;-60
2023/07/18 04:03:35;;;;;;;4.17;2.20;;;15.90;99.90;;;;;;5086277;28;20466;-60
2023/07/18 04:06:02;;;;;;;5.47;2.73;;;16.10;99.90;;;;;;5078052;28;20974;-61
2023/07/18 04:08:30;;;;;;;4.50;2.60;;;15.80;99.90;;;;;;5075782;28;20446;-61
2023/07/18 04:10:58;;;;;;;12.03;2.50;;;15.80;99.90;;;;;;5093059;28;20489;-58
2023/07/18 04:13:25;;;;;;;4.27;2.67;;;;;;;;;;5078824;28;20485;-62
2023/07/18 04:15:55;;;;;;;4.23;2.70;;;15.60;99.90;;;;;;5081363;28;20515;-56
2023/07/18 04:18:21;;;;;;;3.67;2.10;;;15.80;99.90;;;;;;5089081;28;20431;-61
2023/07/18 04:20:50;;;;;;;3.83;2.80;;;15.90;99.90;;;;;;5084498;28;20442;-65
2023/07/18 04:23:17;;;;;;;4.80;2.00;;;15.80;99.90;;;;;;5075682;28;20469;-61
2023/07/18 04:25:58;;;;;;;4.10;2.87;;;15.90;99.90;;;;;;5079426;28;20533;-60
2023/07/18 04:28:27;;;;;;;4.13;2.67;;;16.10;99.90;;;;;;5098838;28;20422;-63
2023/07/18 04:30:55;;;;;;;5.80;2.73;;;15.90;99.90;;;;;;5091302;28;20502;-62
2023/07/18 04:33:22;;;;;;;6.23;3.23;;;;;;;;;;5086636;28;20766;-63
2023/07/18 04:35:50;;;;;;;3.93;2.83;;;16.40;99.90;;;;;;5081324;28;20474;-63
2023/07/18 04:38:17;;;;;;;7.50;3.00;;;16.60;99.90;;;;;;5076977;28;20982;-63
2023/07/18 04:40:44;;;;;;;4.87;2.83;;;16.20;99.90;;;;;;5080403;28;20446;-61
2023/07/18 04:43:12;;;;;;;2.93;2.63;;;16.20;99.90;;;;;;5095211;28;20467;-60
2023/07/18 04:45:44;;;;;;;4.47;2.60;;;16.20;99.90;;;;;;5091706;28;20450;-61
2023/07/18 04:48:12;;;;;;;6.30;2.73;;;16.20;99.90;;;;;;5075709;28;20478;-60
2023/07/18 04:50:39;;;;;;;10.33;3.10;;;16.40;99.90;;;;;;5080538;28;20476;-61
2023/07/18 04:53:06;;;;;;;5.70;2.80;;;16.70;99.90;;;;;;5079211;28;20517;-60
2023/07/18 04:55:34;;;;;;;5.63;2.80;;;;;;;;;;5078712;28;20451;-62
2023/07/18 04:58:02;;;;;;;5.37;3.43;;;16.30;99.90;;;;;;5074972;28;20470;-60
2023/07/18 05:00:30;;;;;;;3.83;3.17;;;16.20;99.90;;;;;;5081092;28;20457;-61
2023/07/18 05:02:58;;;;;;;5.80;2.90;;;16.50;99.90;;;;;;5078997;28;20466;-62
2023/07/18 05:05:27;;;;;;;4.70;3.40;;;;;;;;;;5075040;28;20537;-61
2023/07/18 05:07:54;;;;;;;3.73;2.70;;;16.30;99.90;;;;;;5098801;28;20453;-55
2023/07/18 05:10:22;;;;;;;8.30;3.00;;;16.20;99.90;;;;;;5083733;28;20455;-63
2023/07/18 05:12:49;;;;;;;7.20;3.10;;;16.20;99.90;;;;;;5074527;28;20521;-61
2023/07/18 05:15:16;;;;;;;3.90;2.77;;;;;;;;;;5074958;28;20503;-61
2023/07/18 05:17:43;;;;;;;4.27;3.03;;;15.90;99.90;;;;;;5074931;28;20507;-61
2023/07/18 05:20:11;;;;;;;4.07;3.27;;;16.00;99.90;;;;;;5077362;28;20449;-61
2023/07/18 05:22:40;;;;;;;5.20;3.90;;;16.20;99.90;;;;;;5077084;28;20549;-62
2023/07/18 05:25:09;;;;;;;3.47;3.17;;;16.50;99.90;;;;;;5088586;28;20442;-60
2023/07/18 05:27:36;;;;;;;7.73;3.20;;;16.10;99.90;;;;;;5078993;28;20545;-60
2023/07/18 05:30:10;;;;;;;4.13;2.83;;;16.60;99.90;;;;;;5084409;28;20468;-61
2023/07/18 05:32:37;;;;;;;5.37;3.27;;;16.50;99.90;;;;;;5080404;28;20470;-62
2023/07/18 05:35:04;;;;;;;3.13;2.30;;;16.30;99.90;;;;;;5078454;28;20474;-60
2023/07/18 05:37:31;;;;;;;3.10;2.60;;;16.60;99.90;;;;;;5074696;28;20501;-62
2023/07/18 05:39:59;;;;;;;5.40;3.37;;;16.80;99.90;;;;;;5081270;28;20497;-61
2023/07/18 05:42:27;;;;;;;4.33;2.73;;;;;;;;;;5076635;28;20446;-61
2023/07/18 05:44:54;;;;;;;5.40;3.40;;;16.50;99.90;;;;;;5076918;28;20508;-61
2023/07/18 05:47:20;;;;;;;3.83;2.73;;;16.90;99.90;;;;;;5090289;28;20430;-60
2023/07/18 05:49:47;;;;;;;5.30;2.87;;;17.20;99.90;;;;;;5076981;28;20502;-64
2023/07/18 05:52:14;;;;;;;5.50;2.87;;;;;;;;;;5079009;28;20567;-63
2023/07/18 05:54:41;;;;;;;5.47;3.57;;;17.00;99.90;;;;;;5077082;28;20539;-62
2023/07/18 05:57:10;;;;;;;7.50;2.90;;;17.10;99.90;;;;;;5075510;28;20529;-62
2023/07/18 05:59:36;;;;;;;7.27;3.87;;;17.00;99.90;;;;;;5075867;28;20485;-61
2023/07/18 06:02:04;;;;;;;9.50;4.13;;;17.20;99.90;;;;;;5077501;28;20451;-61
2023/07/18 06:04:31;;;;;;;5.93;2.57;;;17.30;99.90;;;;;;5074254;28;20442;-61
2023/07/18 06:06:58;;;;;;;5.67;2.70;;;17.30;99.90;;;;;;5078317;28;20454;-62
2023/07/18 06:09:25;;;;;;;6.57;3.37;;;17.20;99.90;;;;;;5080418;28;20438;-63
2023/07/18 06:11:51;;;;;;;3.83;2.83;;;17.30;99.90;;;;;;5084376;28;20539;-65
2023/07/18 06:14:20;;;;;;;3.83;3.00;;;17.60;99.90;;;;;;5077833;28;20525;-61
2023/07/18 06:16:47;;;;;;;8.33;3.20;;;17.70;99.90;;;;;;5084677;28;20442;-61
2023/07/18 06:19:15;;;;;;;4.83;2.80;;;;;;;;;;5078245;28;20806;-62
2023/07/18 06:21:42;;;;;;;5.83;3.10;;;17.60;99.90;;;;;;5079665;28;20933;-61
2023/07/18 06:24:09;;;;;;;6.20;3.30;;;17.90;99.90;;;;;;5079199;28;20724;-61
2023/07/18 06:26:36;;;;;;;4.10;2.23;;;17.90;99.90;;;;;;5084018;28;20470;-61
2023/07/18 06:29:03;;;;;;;4.00;2.90;;;18.30;99.90;;;;;;5084697;28;20478;-62
2023/07/18 06:31:33;;;;;;;6.27;3.10;;;18.10;99.90;;;;;;5078330;28;20574;-66
2023/07/18 06:33:59;;;;;;;4.80;3.00;;;18.10;99.90;;;;;;5086019;28;20461;-59
2023/07/18 06:36:26;;;;;;;4.60;2.70;;;18.30;99.90;;;;;;5088987;28;20462;-61
2023/07/18 06:38:54;;;;;;;4.80;2.83;;;;;;;;;;5095606;28;20443;-61
2023/07/18 06:41:23;;;;;;;3.30;2.30;;;;;;;;;;5144569;22;20476;-60
2023/07/18 06:43:51;;;;;;;4.57;3.50;;;;;;;;;;5133400;28;20443;-60
2023/07/18 06:46:19;;;;;;;7.20;2.43;;;;;;;;;;5126729;28;20460;-59
2023/07/18 06:48:47;;;;;;;3.90;2.40;;;;;;;;;;5123465;28;20440;-59
2023/07/18 06:51:15;;;;;;;7.10;2.60;;;;;;;;;;5121241;28;20533;-59
2023/07/18 06:53:41;;;;;;;4.90;3.00;;;18.60;99.90;;;;;;5124436;28;20455;-60
2023/07/18 06:56:08;;;;;;;2.67;1.90;;;;;;;;;;5117701;28;20927;-59
2023/07/18 06:58:36;;;;;;;4.23;2.90;;;;;;;;;;5116833;28;20435;-59
2023/07/18 07:01:03;;;;;;;4.17;2.33;;;;;;;;;;5117077;28;20820;-58
2023/07/18 07:03:30;;;;;;;7.80;2.57;;;;;;;;;;5116765;28;20436;-60
2023/07/18 07:05:59;;;;;;;7.30;2.57;;;;;;;;;;5116895;28;20528;-60
2023/07/18 07:08:26;;;;;;;7.13;3.30;;;19.60;99.90;;;;;;5122215;28;20456;-60
2023/07/18 07:11:04;;;;;;;3.30;2.00;;;19.30;99.90;;;;;;5121381;28;20464;-59
2023/07/18 07:13:31;;;;;;;7.30;4.30;;;;;;;;;;5120273;28;20530;-60
2023/07/18 07:15:58;;;;;;;5.90;3.73;;;20.30;99.90;;;;;;5125160;28;20480;-60
2023/07/18 07:18:26;;;;;;;2.73;2.10;;;19.70;99.90;;;;;;5124215;28;20459;-60
2023/07/18 07:20:54;;;;;;;9.73;2.97;;;;;;;;;;5128772;28;20444;-59
2023/07/18 07:23:23;;;;;;;4.03;2.57;;;;;;;;;;5127002;28;20462;-59
2023/07/18 07:25:50;;;;;;;3.70;2.00;;;21.80;99.90;;;;;;5124105;28;20468;-59
2023/07/18 07:28:17;;;;;;;7.70;2.70;;;22.30;99.90;;;;;;5122951;28;20960;-59
2023/07/18 07:30:45;;;;;;;2.33;1.73;;;;;;;;;;5128119;28;20826;-60
2023/07/18 07:33:12;;;;;;;2.47;1.90;;;25.20;99.90;;;;;;5124434;28;20480;-61
2023/07/18 07:35:39;;;;;;;4.63;2.40;;;;;;;;;;5123801;28;20440;-60
2023/07/18 07:38:07;;;;;;;4.60;2.40;;;26.80;99.90;;;;;;5125129;28;20837;-58
2023/07/18 07:40:35;;;;;;;4.80;2.40;;;26.30;99.90;;;;;;5128749;28;20463;-59
2023/07/18 07:43:02;;;;;;;5.17;2.87;;;26.10;99.90;;;;;;5118486;28;20560;-59
2023/07/18 07:45:29;;;;;;;5.13;3.17;;;26.40;99.90;;;;;;5119559;28;20461;-59
2023/07/18 07:47:56;;;;;;;5.00;3.60;;;;;;;;;;5120163;28;21004;-59
2023/07/18 07:50:23;;;;;;;3.53;2.67;;;;;;;;;;5120180;28;20452;-60
2023/07/18 07:52:50;;;;;;;4.87;2.47;;;26.80;99.90;;;;;;5119242;28;20522;-60
2023/07/18 07:55:17;;;;;;;3.50;2.20;;;;;;;;;;5115870;28;20527;-61
2023/07/18 07:57:46;;;;;;;3.17;2.63;;;26.60;99.90;;;;;;5115827;28;20491;-59
2023/07/18 08:00:18;;;;;;;4.53;2.93;;;28.50;97.50;;;;;;5119039;28;20504;-59
2023/07/18 08:02:46;;;;;;;2.90;2.60;;;;;;;;;;5119907;28;20432;-60
2023/07/18 08:05:13;;;;;;;4.30;2.30;;;28.30;99.90;;;;;;5117680;28;20499;-60
2023/07/18 08:07:42;;;;;;;3.27;2.60;;;;;;;;;;5124177;28;20453;-61
2023/07/18 08:10:10;;;;;;;5.93;2.57;;;;;;;;;;5119365;28;20484;-59
2023/07/18 08:12:37;;;;;;;2.47;2.00;;;28.00;99.90;;;;;;5115634;28;20567;-58
2023/07/18 08:15:06;;;;;;;9.83;2.97;;;28.10;99.90;;;;;;5117481;28;20570;-59
2023/07/18 08:17:34;;;;;;;2.97;2.40;;;;;;;;;;5119494;28;20510;-60
2023/07/18 08:20:01;;;;;;;3.30;2.10;;;;;;;;;;5120082;28;20471;-61
2023/07/18 08:22:28;;;;;;;4.47;2.83;;;;;;;;;;5123139;28;20440;-60
2023/07/18 08:24:55;;;;;;;4.33;2.60;;;29.30;99.30;;;;;;5119231;28;20564;-59
2023/07/18 08:27:22;;;;;;;2.63;2.13;;;;;;;;;;5114998;28;20484;-61
2023/07/18 08:29:50;;;;;;;5.20;2.53;;;;;;;;;;5115719;28;20541;-62
2023/07/18 08:32:18;;;;;;;3.40;2.43;;;30.80;95.00;;;;;;5117475;28;20465;-61
2023/07/18 08:34:45;;;;;;;8.17;2.63;;;;;;;;;;5119084;28;20468;-60
2023/07/18 08:37:13;;;;;;;4.30;2.07;;;30.80;93.90;;;;;;5119142;28;20517;-60
2023/07/18 08:39:40;;;;;;;4.07;1.90;;;30.50;98.30;;;;;;5120981;28;20459;-61
2023/07/18 08:42:07;;;;;;;2.80;1.83;;;30.50;93.30;;;;;;5115667;28;20454;-61
2023/07/18 08:44:35;;;;;;;4.53;2.37;;;30.30;67.50;;;;;;5116583;28;20467;-60
2023/07/18 08:47:05;;;;;;;3.40;2.43;;;29.90;94.00;;;;;;5121609;28;20444;-62
2023/07/18 08:49:35;;;;;;;3.90;1.97;;;30.20;93.70;;;;;;5121910;28;20465;-60
2023/07/18 08:52:02;;;;;;;6.43;2.20;;;;;;;;;;5123146;28;20474;-61
2023/07/18 08:54:29;;;;;;;2.80;2.17;;;;;;;;;;5123023;28;20435;-59
2023/07/18 08:56:57;;;;;;;3.67;1.83;;;28.00;99.00;;;;;;5123176;28;20468;-63
2023/07/18 08:59:24;;;;;;;4.23;2.20;;;27.60;99.90;;;;;;5122224;28;20445;-61
2023/07/18 09:01:53;;;;;;;8.37;2.33;;;26.70;74.20;;;;;;5122986;28;20521;-61
2023/07/18 09:04:20;;;;;;;2.33;1.97;;;26.70;98.70;;;;;;5123146;28;20444;-59
2023/07/18 09:06:56;;;;;;;5.00;1.93;;;27.50;71.90;;;;;;5123971;28;20532;-59
2023/07/18 09:09:24;;;;;;;6.10;2.10;;;28.20;93.60;;;;;;5123829;28;20428;-59
2023/07/18 09:11:58;;;;;;;3.10;1.90;;;28.70;96.30;;;;;;5117948;28;20507;-59
2023/07/18 09:14:27;;;;;;;3.77;1.93;;;29.80;93.40;;;;;;5103885;28;20747;-59
2023/07/18 09:16:55;;;;;;;5.97;2.47;;;;;;;;;;5096560;28;20473;-59
2023/07/18 09:19:37;;;;;;;4.50;1.47;;;30.40;62.20;;;;;;5097476;28;20453;-61
2023/07/18 09:22:06;;;;;;;2.60;1.83;;;30.70;95.00;;;;;;5097492;28;20469;-61
2023/07/18 09:24:35;;;;;;;2.27;1.70;;;;;;;;;;5098195;28;20446;-60
2023/07/18 09:27:02;;;;;;;2.70;1.70;;;30.70;94.80;;;;;;5097470;28;20803;-60
2023/07/18 09:29:30;;;;;;;3.90;1.90;;;;;;;;;;5099084;28;20481;-60
2023/07/18 09:31:56;;;;;;;1.90;1.50;;;30.40;90.80;;;;;;5100599;28;20469;-59
2023/07/18 09:34:26;;;;;;;4.07;2.10;;;30.20;59.70;;;;;;5100659;28;20422;-59
2023/07/18 09:36:58;;;;;;;3.90;2.07;;;30.90;56.40;;;;;;5100245;28;20847;-60
2023/07/18 09:39:27;;;;;;;3.50;2.20;;;31.00;86.10;;;;;;5094127;28;20436;-59
2023/07/18 09:41:55;;;;;;;3.60;1.43;;;;;;;;;;5095711;28;20469;-61
2023/07/18 09:44:26;;;;;;;2.90;2.07;;;31.50;91.90;;;;;;5100207;28;20426;-59
2023/07/18 09:46:55;;;;;;;3.03;1.80;;;;;;;;;;5103125;28;20580;-59
2023/07/18 09:49:22;;;;;;;2.60;2.00;;;32.10;82.40;;;;;;5103669;28;20442;-56
2023/07/18 09:51:56;;;;;;;1.97;1.77;;;32.00;81.30;;;;;;5103837;28;20460;-61
2023/07/18 09:54:25;;;;;;;7.30;1.63;;;32.20;82.90;;;;;;5106585;28;20445;-55
2023/07/18 09:56:57;;;;;;;2.20;1.30;;;32.20;84.00;;;;;;5099005;28;20749;-60
2023/07/18 09:59:27;;;;;;;3.50;2.33;;;31.90;51.30;;;;;;5105579;28;20448;-60
2023/07/18 10:01:54;;;;;;;2.30;1.50;;;;;;;;;;5120512;28;20440;-59
2023/07/18 10:04:22;;;;;;;2.20;1.80;;;31.30;51.90;;;;;;5119182;28;20468;-61
2023/07/18 10:06:51;;;;;;;2.10;1.90;;;31.40;51.10;;;;;;5121014;28;20448;-60
2023/07/18 10:09:18;;;;;;;4.90;2.17;;;31.70;78.40;;;;;;5124647;28;20440;-61
2023/07/18 10:12:08;;;;;;;4.00;3.07;;;31.40;88.60;;;;;;5123476;28;20440;-59
2023/07/18 10:14:49;;;;;;;3.60;2.20;;;31.30;88.50;;;;;;5117929;28;20497;-59
2023/07/18 10:17:27;;;;;;;2.47;1.80;;;31.20;81.10;;;;;;5118822;28;20464;-61
2023/07/18 10:19:54;;;;;;;5.90;1.80;;;30.60;81.90;;;;;;5122125;28;20483;-59
2023/07/18 10:22:26;;;;;;;2.30;1.60;;;30.20;66.60;;;;;;5123611;28;20436;-58
2023/07/18 10:24:54;;;;;;;1.90;1.37;;;;;;;;;;5124106;28;20483;-59
2023/07/18 10:27:24;;;;;;;1.70;1.40;;;30.70;90.40;;;;;;5123222;28;20468;-59
2023/07/18 10:30:05;;;;;;;3.30;1.80;;;30.30;88.80;;;;;;5124021;28;20531;-60
2023/07/18 10:32:33;;;;;;;3.57;1.63;;;30.20;63.80;;;;;;5124092;28;20505;-59
2023/07/18 10:35:00;;;;;;;1.93;1.37;;;;;;;;;;5124103;28;20963;-59
2023/07/18 10:37:27;;;;;;;3.37;1.60;;;;;;;;;;5123433;28;20474;-61
2023/07/18 10:39:55;;;;;;;3.07;1.70;;;30.00;90.60;;;;;;5123860;28;20472;-61
2023/07/18 10:42:27;;;;;;;8.07;1.60;;;30.10;80.80;;;;;;5124787;28;20461;-60
2023/07/18 10:44:56;;;;;;;2.10;1.90;;;30.10;53.00;;;;;;5118415;28;20552;-62
2023/07/18 10:47:30;;;;;;;3.37;2.37;;;;;;;;;;5120366;28;20474;-59
2023/07/18 10:49:58;;;;;;;1.97;1.57;;;;;;;;;;5123880;28;20480;-59
2023/07/18 10:52:25;;;;;;;4.00;2.33;;;29.80;83.10;;;;;;5123605;28;20527;-59
2023/07/18 10:54:56;;;;;;;5.67;1.70;;;29.70;57.10;;;;;;5125275;28;20936;-59
2023/07/18 10:57:29;;;;;;;3.00;1.83;;;29.30;90.90;;;;;;5133345;28;20503;-60
2023/07/18 10:59:57;;;;;;;2.17;1.73;;;29.20;84.70;;;;;;5127785;28;20461;-59
2023/07/18 11:02:24;;;;;;;7.10;2.00;;;;;;;;;;5124300;28;20449;-58
2023/07/18 11:04:52;;;;;;;2.17;1.83;;;;;;;;;;5116200;28;20511;-58
2023/07/18 11:07:19;;;;;;;3.57;1.40;;;;;;;;;;5116687;28;20440;-59
2023/07/18 11:09:46;;;;;;;3.40;2.23;;;;;;;;;;5116694;28;20905;-60
2023/07/18 11:12:18;;;;;;;2.60;1.73;;;27.80;87.20;;;;;;5116650;28;20465;-60
2023/07/18 11:14:47;;;;;;;2.10;1.53;;;27.70;66.70;;;;;;5117319;28;20491;-60
2023/07/18 11:17:14;;;;;;;2.50;1.60;;;27.70;55.00;;;;;;5117738;28;20452;-60
2023/07/18 11:19:41;;;;;;;4.33;2.23;;;27.40;92.70;;;;;;5117799;28;20444;-60
2023/07/18 11:22:10;;;;;;;3.60;2.30;;;;;;;;;;5119340;28;20496;-60
2023/07/18 11:24:37;;;;;;;3.70;2.30;;;27.60;63.70;;;;;;5122522;28;20491;-57
2023/07/18 11:27:12;;;;;;;2.27;1.30;;;27.70;87.80;;;;;;5116970;28;20513;-59
2023/07/18 11:29:40;;;;;;;2.33;1.27;;;;;;;;;;5117763;28;20444;-60
2023/07/18 11:32:09;;;;;;;8.60;1.73;;;27.30;93.00;;;;;;5117618;28;20500;-61
2023/07/18 11:34:36;;;;;;;1.30;1.20;;;;;;;;;;5117750;28;20484;-60
2023/07/18 11:37:06;;;;;;;2.03;1.50;;;28.00;88.40;;;;;;5117634;28;20541;-60
2023/07/18 11:39:33;;;;;;;3.97;1.80;;;;;;;;;;5118023;28;20531;-61
2023/07/18 11:42:08;;;;;;;4.10;1.67;;;;;;;;;;5120073;28;20473;-61
2023/07/18 11:44:36;;;;;;;6.80;2.97;;;;;;;;;;5120172;28;20436;-60
2023/07/18 11:47:10;;;;;;;3.00;1.70;;;27.60;89.10;;;;;;5123288;28;20483;-59
2023/07/18 11:49:39;;;;;;;2.73;2.00;;;27.40;57.80;;;;;;5123613;28;20963;-59
2023/07/18 11:52:08;;;;;;;2.60;2.13;;;27.20;57.30;;;;;;5124937;28;20460;-59
2023/07/18 11:54:35;;;;;;;2.27;1.73;;;27.60;93.30;;;;;;5131004;28;20544;-61
2023/07/18 11:57:03;;;;;;;7.83;3.27;;;27.40;90.70;;;;;;5124888;28;20952;-60
2023/07/18 11:59:30;;;;;;;3.17;1.90;;;;;;;;;;5125299;28;20436;-59
2023/07/18 12:01:57;;;;;;;2.50;1.70;;;27.30;90.50;;;;;;5132218;28;20471;-60
2023/07/18 12:04:25;;;;;;;3.00;2.23;;;;;;;;;;5123768;28;20513;-60
2023/07/18 12:06:54;;;;;;;1.60;1.10;;;;;;;;;;5123601;28;20518;-59
2023/07/18 12:09:21;;;;;;;5.10;2.20;;;27.10;88.00;;;;;;5124697;28;20472;-59
2023/07/18 12:11:48;;;;;;;2.90;1.13;;;;;;;;;;5116609;28;20444;-60
2023/07/18 12:14:15;;;;;;;4.80;2.43;;;27.20;92.90;;;;;;5116554;28;20544;-60
2023/07/18 12:16:42;;;;;;;1.50;1.27;;;27.20;92.80;;;;;;5119198;28;20444;-59
2023/07/18 12:19:09;;;;;;;1.90;1.37;;;;;;;;;;5123668;28;20457;-58
2023/07/18 12:21:37;;;;;;;2.00;1.50;;;;;;;;;;5123409;28;20452;-60
2023/07/18 12:24:05;;;;;;;6.87;4.00;;;27.70;92.80;;;;;;5116427;28;20527;-60
2023/07/18 12:26:33;;;;;;;2.67;1.40;;;;;;;;;;5115623;28;20444;-59
2023/07/18 12:29:00;;;;;;;3.20;1.70;;;;;;;;;;5116229;28;20825;-60
2023/07/18 12:31:27;;;;;;;3.03;1.80;;;27.40;87.90;;;;;;5118004;28;20455;-61
2023/07/18 12:33:54;;;;;;;1.60;1.50;;;;;;;;;;5117232;28;20515;-61
2023/07/18 12:36:22;;;;;;;9.40;1.40;;;;;;;;;;5115213;28;20514;-60
2023/07/18 12:38:52;;;;;;;1.50;1.40;;;;;;;;;;5115167;28;20472;-60
2023/07/18 12:41:20;;;;;;;2.57;1.40;;;27.10;86.40;;;;;;5116046;28;20484;-63
2023/07/18 12:43:47;;;;;;;2.73;1.20;;;27.40;86.30;;;;;;5116605;28;20500;-60
2023/07/18 12:46:14;;;;;;;2.37;1.63;;;26.90;92.50;;;;;;5118040;28;20478;-60
2023/07/18 12:48:41;;;;;;;3.70;1.57;;;27.40;86.50;;;;;;5118607;28;20525;-61
2023/07/18 12:51:08;;;;;;;3.60;1.73;;;27.30;92.40;;;;;;5118430;28;20464;-59
2023/07/18 12:53:35;;;;;;;1.90;1.70;;;27.10;88.90;;;;;;5118398;28;20509;-60
2023/07/18 12:56:02;;;;;;;2.00;1.40;;;;;;;;;;5118766;28;20441;-59
2023/07/18 12:58:33;;;;;;;1.70;1.37;;;27.30;56.50;;;;;;5118549;28;20456;-59
2023/07/18 13:01:00;;;;;;;2.40;1.50;;;;;;;;;;5119009;28;20467;-60
2023/07/18 13:03:28;;;;;;;4.00;1.60;;;27.20;87.00;;;;;;5124290;28;20444;-60
2023/07/18 13:05:55;;;;;;;3.03;1.90;;;27.00;86.90;;;;;;5120877;28;20548;-60
2023/07/18 13:08:22;;;;;;;1.60;1.30;;;27.10;92.90;;;;;;5114379;28;20499;-61
2023/07/18 13:10:49;;;;;;;2.03;1.30;;;27.30;93.00;;;;;;5114509;28;20548;-59
2023/07/18 13:13:16;;;;;;;5.30;1.53;;;;;;;;;;5116316;28;20440;-60
2023/07/18 13:15:47;;;;;;;2.87;1.30;;;26.60;86.80;;;;;;5115486;28;20452;-60
2023/07/18 13:18:14;;;;;;;3.73;2.13;;;;;;;;;;5118899;28;20540;-60
2023/07/18 13:20:41;;;;;;;2.17;1.63;;;26.10;56.40;;;;;;5123719;28;20469;-59
2023/07/18 13:23:09;;;;;;;2.70;1.60;;;;;;;;;;5123262;28;20462;-59
2023/07/18 13:25:36;;;;;;;2.23;1.20;;;;;;;;;;5122908;28;20476;-57